Time;durP1;ratioP1;P1;durP2;ratioP2;P2;SDS_P1;SDS_P2;PMS_P1;PMS_P2;Temp;Humidity;BMP_temperature;BMP_pressure;BME280_temperature;BME280_humidity;BME280_pressure;Samples;Min_cycle;Max_cycle;Signal;HPM_P1;HPM_P2
2022/05/11 00:01:33;;;;;;;10.02;5.25;;;14.20;99.90;;;;;;5002961;28;20728;-66
2022/05/11 00:04:00;;;;;;;5.68;4.40;;;14.20;99.90;;;;;;5005574;28;20046;-66
2022/05/11 00:06:27;;;;;;;7.88;4.70;;;14.20;99.90;;;;;;4994612;28;20058;-66
2022/05/11 00:08:53;;;;;;;5.57;4.82;;;14.20;99.90;;;;;;5001870;28;20181;-66
2022/05/11 00:11:19;;;;;;;11.90;5.38;;;14.20;99.90;;;;;;5000067;28;20057;-66
2022/05/11 00:13:45;;;;;;;6.70;5.38;;;14.20;99.90;;;;;;5003968;28;20042;-66
2022/05/11 00:16:11;;;;;;;6.70;4.07;;;14.20;99.90;;;;;;5001220;28;20041;-65
2022/05/11 00:18:38;;;;;;;5.85;4.78;;;14.20;99.90;;;;;;5001783;28;20133;-65
2022/05/11 00:21:04;;;;;;;8.52;4.35;;;14.20;99.90;;;;;;4996947;28;21076;-66
2022/05/11 00:23:29;;;;;;;8.70;4.70;;;14.20;99.90;;;;;;4997711;28;20046;-66
2022/05/11 00:25:55;;;;;;;5.82;4.20;;;14.20;99.90;;;;;;5002297;28;20071;-65
2022/05/11 00:28:21;;;;;;;6.57;3.92;;;14.20;99.90;;;;;;5007013;28;20127;-65
2022/05/11 00:30:48;;;;;;;8.68;4.95;;;14.20;99.90;;;;;;5005826;28;20049;-65
2022/05/11 00:33:15;;;;;;;6.43;5.10;;;14.20;99.90;;;;;;5007730;28;20892;-65
2022/05/11 00:35:43;;;;;;;5.47;4.03;;;14.20;99.90;;;;;;5003359;28;20053;-66
2022/05/11 00:38:09;;;;;;;9.75;5.43;;;14.40;99.90;;;;;;5010872;28;20901;-65
2022/05/11 00:40:41;;;;;;;7.80;4.07;;;14.20;99.90;;;;;;5004334;28;20421;-66
2022/05/11 00:43:07;;;;;;;6.72;4.68;;;14.20;99.90;;;;;;4999828;28;20073;-67
2022/05/11 00:45:33;;;;;;;8.32;4.50;;;14.30;99.90;;;;;;5004661;28;20126;-67
2022/05/11 00:49:33;;;;;;;6.70;4.60;;;14.30;99.90;;;;;;5003231;28;20042;-66
2022/05/11 00:50:49;;;;;;;6.88;5.25;;;14.30;99.90;;;;;;5001744;28;20413;-66
2022/05/11 00:53:17;;;;;;;7.32;4.95;;;14.30;99.90;;;;;;5008838;28;20049;-66
2022/05/11 00:55:55;;;;;;;6.38;4.22;;;14.30;99.90;;;;;;5011556;28;20049;-67
2022/05/11 00:58:50;;;;;;;8.13;5.22;;;14.30;99.90;;;;;;5008201;28;20616;-66
2022/05/11 01:01:16;;;;;;;5.97;4.57;;;14.30;99.90;;;;;;5004547;28;20045;-66
2022/05/11 01:04:06;;;;;;;4.70;3.55;;;14.30;99.90;;;;;;5006192;28;20095;-66
2022/05/11 01:06:33;;;;;;;7.90;4.75;;;14.30;99.90;;;;;;5012360;28;20818;-66
2022/05/11 01:09:00;;;;;;;6.80;5.00;;;14.30;99.90;;;;;;5009539;28;20037;-66
2022/05/11 01:11:26;;;;;;;8.32;4.32;;;14.30;99.90;;;;;;5009447;28;20127;-67
2022/05/11 01:13:52;;;;;;;7.88;4.30;;;14.20;99.90;;;;;;5003377;28;20034;-67
2022/05/11 01:16:18;;;;;;;7.28;4.38;;;14.30;99.90;;;;;;5003392;28;20107;-65
2022/05/11 01:18:44;;;;;;;5.28;4.22;;;14.20;99.90;;;;;;5000329;28;20671;-64
2022/05/11 01:21:10;;;;;;;6.15;3.88;;;14.20;99.90;;;;;;5005831;28;20041;-64
2022/05/11 01:23:51;;;;;;;6.43;3.97;;;14.20;99.90;;;;;;5003669;28;20045;-64
2022/05/11 01:26:18;;;;;;;5.10;4.05;;;14.20;99.90;;;;;;5000961;28;20128;-65
2022/05/11 01:28:47;;;;;;;6.18;4.43;;;14.20;99.90;;;;;;4998883;28;20503;-65
2022/05/11 01:31:15;;;;;;;7.35;3.70;;;14.20;99.90;;;;;;5000070;28;20049;-64
2022/05/11 01:33:45;;;;;;;5.88;3.72;;;14.20;99.90;;;;;;5004173;28;20876;-64
2022/05/11 01:36:28;;;;;;;4.43;3.70;;;14.20;99.90;;;;;;5006166;28;20037;-64
2022/05/11 01:39:00;;;;;;;6.93;4.35;;;14.20;99.90;;;;;;5004751;28;20038;-65
2022/05/11 01:41:43;;;;;;;11.65;3.58;;;14.10;99.90;;;;;;5003821;28;20045;-64
2022/05/11 01:44:12;;;;;;;9.00;4.05;;;14.10;99.90;;;;;;5003241;28;20049;-64
2022/05/11 01:46:39;;;;;;;6.60;4.10;;;14.10;99.90;;;;;;5003521;28;20050;-64
2022/05/11 01:49:06;;;;;;;9.35;4.85;;;14.10;99.90;;;;;;5006102;28;20756;-64
2022/05/11 01:51:32;;;;;;;5.57;2.95;;;14.10;99.90;;;;;;5008595;28;20925;-65
2022/05/11 01:53:57;;;;;;;6.25;3.88;;;14.10;99.90;;;;;;4996432;28;20083;-66
2022/05/11 01:56:25;;;;;;;5.30;3.95;;;14.10;99.90;;;;;;4998645;28;20164;-67
2022/05/11 01:58:51;;;;;;;7.70;4.07;;;14.10;99.90;;;;;;5002059;28;20034;-66
2022/05/11 02:01:21;;;;;;;6.53;4.35;;;14.10;99.90;;;;;;5001930;28;20713;-66
2022/05/11 02:03:47;;;;;;;4.70;3.22;;;14.10;99.90;;;;;;4999943;28;20053;-66
2022/05/11 02:08:58;;;;;;;6.65;3.70;;;14.00;99.90;;;;;;4997866;28;20049;-67
2022/05/11 02:11:23;;;;;;;4.85;3.78;;;14.00;99.90;;;;;;5007356;28;20469;-66
2022/05/11 02:13:49;;;;;;;6.53;3.72;;;14.00;99.90;;;;;;5003478;28;20047;-66
2022/05/11 02:16:16;;;;;;;9.27;4.53;;;14.00;99.90;;;;;;4999617;28;20796;-66
2022/05/11 02:18:42;;;;;;;4.55;4.03;;;14.00;99.90;;;;;;5000817;28;20050;-66
2022/05/11 02:21:08;;;;;;;10.10;3.63;;;14.00;99.90;;;;;;5001657;28;20042;-66
2022/05/11 02:23:35;;;;;;;4.65;2.58;;;14.00;99.90;;;;;;4996098;28;20058;-66
2022/05/11 02:26:01;;;;;;;6.40;4.03;;;14.00;99.90;;;;;;5007039;28;20129;-66
2022/05/11 02:28:27;;;;;;;6.60;4.03;;;13.90;99.90;;;;;;4994661;28;20102;-66
2022/05/11 02:30:56;;;;;;;6.95;4.07;;;13.90;99.90;;;;;;5003251;28;20060;-67
2022/05/11 02:33:24;;;;;;;4.25;3.50;;;13.90;99.90;;;;;;5001881;28;20046;-66
2022/05/11 02:35:51;;;;;;;6.03;3.83;;;13.90;99.90;;;;;;5003047;28;20981;-66
2022/05/11 02:38:29;;;;;;;5.25;3.92;;;13.90;99.90;;;;;;5009381;28;20048;-66
2022/05/11 02:40:55;;;;;;;7.70;4.30;;;13.90;99.90;;;;;;5003879;28;20045;-66
2022/05/11 02:43:21;;;;;;;6.40;3.72;;;13.90;99.90;;;;;;5004777;28;20052;-66
2022/05/11 02:45:48;;;;;;;6.10;3.45;;;13.90;99.90;;;;;;5005867;28;20045;-67
2022/05/11 02:48:17;;;;;;;5.00;3.45;;;13.90;99.90;;;;;;5002910;28;20053;-66
2022/05/11 02:50:49;;;;;;;9.23;3.80;;;13.90;99.90;;;;;;5010605;28;20060;-66
2022/05/11 02:53:15;;;;;;;4.88;3.67;;;13.90;99.90;;;;;;5012615;28;20088;-66
2022/05/11 02:55:44;;;;;;;7.85;3.58;;;13.90;99.90;;;;;;5003391;28;20041;-66
2022/05/11 02:58:12;;;;;;;6.47;3.80;;;13.90;99.90;;;;;;5008280;28;20107;-66
2022/05/11 03:00:39;;;;;;;4.80;3.70;;;13.90;99.90;;;;;;5006194;28;20809;-67
2022/05/11 03:03:06;;;;;;;5.50;3.28;;;13.90;99.90;;;;;;5004968;28;20040;-66
2022/05/11 03:05:32;;;;;;;6.50;3.20;;;13.90;99.90;;;;;;5002513;28;20480;-66
2022/05/11 03:07:58;;;;;;;4.10;2.50;;;13.90;99.90;;;;;;5001468;28;20061;-66
2022/05/11 03:10:24;;;;;;;5.10;3.30;;;13.90;99.90;;;;;;5000481;28;20058;-66
2022/05/11 03:12:49;;;;;;;4.72;3.13;;;14.00;99.90;;;;;;5004947;28;20120;-66
2022/05/11 03:15:16;;;;;;;4.70;2.90;;;14.00;99.90;;;;;;5001858;28;20215;-66
2022/05/11 03:17:41;;;;;;;5.65;3.38;;;14.00;99.90;;;;;;5006316;28;20056;-66
2022/05/11 03:20:09;;;;;;;5.15;3.75;;;14.00;99.90;;;;;;4998800;28;20088;-66
2022/05/11 03:22:35;;;;;;;8.82;4.20;;;14.00;99.90;;;;;;5009459;28;20052;-66
2022/05/11 03:25:01;;;;;;;5.80;3.83;;;14.00;99.90;;;;;;5001031;28;20053;-67
2022/05/11 03:27:27;;;;;;;5.95;3.00;;;13.90;99.90;;;;;;5002005;28;20053;-66
2022/05/11 03:29:54;;;;;;;6.75;4.45;;;14.00;99.90;;;;;;5004884;28;20057;-67
2022/05/11 03:35:05;;;;;;;5.18;3.72;;;14.00;99.90;;;;;;5010173;28;20167;-66
2022/05/11 03:37:30;;;;;;;7.47;3.92;;;14.00;99.90;;;;;;5007099;28;20056;-67
2022/05/11 03:39:56;;;;;;;5.35;4.05;;;14.00;99.90;;;;;;5007845;28;20050;-66
2022/05/11 03:42:27;;;;;;;5.97;3.78;;;14.00;99.90;;;;;;5009256;28;20040;-66
2022/05/11 03:44:52;;;;;;;6.30;4.07;;;14.00;99.90;;;;;;5002245;28;20053;-66
2022/05/11 03:47:18;;;;;;;9.85;4.63;;;14.00;99.90;;;;;;5003608;28;20045;-67
2022/05/11 03:49:43;;;;;;;4.90;3.45;;;14.00;99.90;;;;;;5002860;28;20112;-66
2022/05/11 03:52:09;;;;;;;4.15;3.45;;;14.00;99.90;;;;;;4996359;28;20123;-66
2022/05/11 03:54:34;;;;;;;6.13;3.75;;;14.00;99.90;;;;;;5006277;28;20054;-66
2022/05/11 03:57:00;;;;;;;9.13;3.75;;;14.00;99.90;;;;;;4999637;28;20141;-66
2022/05/11 03:59:25;;;;;;;5.93;3.88;;;14.00;99.90;;;;;;5005798;28;20043;-65
2022/05/11 04:01:51;;;;;;;6.15;3.78;;;14.00;99.90;;;;;;5001855;28;20132;-65
2022/05/11 04:04:16;;;;;;;6.40;4.20;;;13.90;99.90;;;;;;5006978;28;20116;-65
2022/05/11 04:06:43;;;;;;;8.90;4.32;;;14.00;99.90;;;;;;4999893;28;20053;-65
2022/05/11 04:09:09;;;;;;;5.82;3.38;;;14.00;99.90;;;;;;5002658;28;20049;-65
2022/05/11 04:11:36;;;;;;;4.47;3.80;;;14.00;99.90;;;;;;5004985;28;20861;-66
2022/05/11 04:14:02;;;;;;;4.80;4.25;;;14.00;99.90;;;;;;5008845;28;20073;-65
2022/05/11 04:16:27;;;;;;;5.85;3.28;;;14.00;99.90;;;;;;5009327;28;20156;-66
2022/05/11 04:18:53;;;;;;;8.38;3.80;;;13.90;99.90;;;;;;5004160;28;20034;-66
2022/05/11 04:21:18;;;;;;;7.28;3.80;;;14.10;99.90;;;;;;5003121;28;20042;-65
2022/05/11 04:23:44;;;;;;;7.07;3.75;;;14.10;99.90;;;;;;5003773;28;20053;-66
2022/05/11 04:26:12;;;;;;;5.30;3.47;;;14.00;99.90;;;;;;5009917;28;20059;-65
2022/05/11 04:28:39;;;;;;;6.80;4.10;;;14.10;99.90;;;;;;5004723;28;20084;-66
2022/05/11 04:31:10;;;;;;;5.95;3.50;;;14.00;99.90;;;;;;5001140;28;20683;-66
2022/05/11 04:33:36;;;;;;;5.50;3.55;;;14.10;99.90;;;;;;4995640;28;20069;-65
2022/05/11 04:36:03;;;;;;;6.38;3.30;;;13.90;99.90;;;;;;5001442;28;20937;-66
2022/05/11 04:38:29;;;;;;;4.63;3.13;;;14.10;99.90;;;;;;5000912;28;20056;-66
2022/05/11 04:40:55;;;;;;;6.15;3.63;;;14.10;99.90;;;;;;5004474;28;20044;-66
2022/05/11 04:43:20;;;;;;;4.20;2.83;;;14.20;99.90;;;;;;4999874;28;20411;-63
2022/05/11 04:45:47;;;;;;;5.78;3.67;;;14.20;99.90;;;;;;4998914;28;20057;-64
2022/05/11 04:48:15;;;;;;;9.98;4.28;;;14.20;99.90;;;;;;5002175;28;20465;-64
2022/05/11 04:50:43;;;;;;;5.82;3.47;;;14.30;99.90;;;;;;5002718;28;20037;-63
2022/05/11 04:53:11;;;;;;;9.10;3.75;;;14.30;99.90;;;;;;4999541;28;20140;-62
2022/05/11 04:55:37;;;;;;;4.32;3.03;;;14.30;99.90;;;;;;5003175;28;20049;-65
2022/05/11 04:58:04;;;;;;;5.80;2.85;;;14.30;99.90;;;;;;5001629;28;20045;-63
2022/05/11 05:00:30;;;;;;;9.95;3.22;;;14.30;99.90;;;;;;4996227;28;20208;-62
2022/05/11 05:02:56;;;;;;;5.50;3.10;;;14.40;99.90;;;;;;4994792;28;20042;-65
2022/05/11 05:05:21;;;;;;;8.90;4.15;;;14.40;99.90;;;;;;4999592;28;20052;-64
2022/05/11 05:07:47;;;;;;;9.20;3.35;;;14.50;99.90;;;;;;4998163;28;20071;-64
2022/05/11 05:10:14;;;;;;;9.10;4.13;;;14.50;99.90;;;;;;4995704;28;20108;-65
2022/05/11 05:12:41;;;;;;;5.03;3.60;;;14.50;99.90;;;;;;5000283;28;20402;-64
2022/05/11 05:15:08;;;;;;;6.28;3.30;;;14.50;99.90;;;;;;4999287;28;20139;-64
2022/05/11 05:17:34;;;;;;;7.68;3.60;;;14.60;99.90;;;;;;4999986;28;20117;-64
2022/05/11 05:19:59;;;;;;;12.10;3.92;;;14.60;99.90;;;;;;5003646;28;20053;-64
2022/05/11 05:22:25;;;;;;;9.18;3.65;;;14.60;99.90;;;;;;4998087;28;20124;-65
2022/05/11 05:24:51;;;;;;;10.43;4.13;;;14.60;99.90;;;;;;4999051;28;20382;-65
2022/05/11 05:27:18;;;;;;;5.80;3.65;;;14.70;99.90;;;;;;4995378;28;20098;-65
2022/05/11 05:32:35;;;;;;;11.68;3.38;;;14.80;99.90;;;;;;4994921;28;20609;-64
2022/05/11 05:35:01;;;;;;;9.43;4.25;;;14.80;99.90;;;;;;5000343;28;20048;-65
2022/05/11 05:37:26;;;;;;;5.63;3.63;;;14.80;99.90;;;;;;4998542;28;20049;-64
2022/05/11 05:39:52;;;;;;;8.40;3.63;;;14.80;99.90;;;;;;4997605;28;20508;-65
2022/05/11 05:42:23;;;;;;;7.95;3.63;;;14.90;99.90;;;;;;4996700;28;20153;-65
2022/05/11 05:44:48;;;;;;;8.57;3.80;;;14.90;99.90;;;;;;4993475;28;20049;-64
2022/05/11 05:47:16;;;;;;;6.15;3.50;;;14.90;99.90;;;;;;5004032;28;20049;-64
2022/05/11 05:49:41;;;;;;;6.10;3.67;;;15.00;99.90;;;;;;4992344;28;20215;-64
2022/05/11 05:52:07;;;;;;;5.00;3.65;;;15.00;99.90;;;;;;4995272;28;20046;-64
2022/05/11 05:54:36;;;;;;;7.95;3.60;;;15.00;99.90;;;;;;4994023;28;20111;-63
2022/05/11 05:57:02;;;;;;;8.23;5.00;;;15.10;99.90;;;;;;5000444;28;20049;-63
2022/05/11 05:59:28;;;;;;;8.07;4.53;;;15.20;99.90;;;;;;4995696;28;20042;-64
2022/05/11 06:01:53;;;;;;;10.20;4.30;;;15.20;99.90;;;;;;4991689;28;20135;-65
2022/05/11 06:04:19;;;;;;;7.82;4.22;;;15.30;99.90;;;;;;4992673;28;20116;-64
2022/05/11 06:06:45;;;;;;;6.45;4.80;;;15.40;99.90;;;;;;4995012;28;20461;-64
2022/05/11 06:09:10;;;;;;;6.38;3.97;;;15.40;99.90;;;;;;4998800;28;20049;-64
2022/05/11 06:11:37;;;;;;;7.32;3.67;;;15.50;99.90;;;;;;4997578;28;20049;-64
2022/05/11 06:14:04;;;;;;;10.90;4.50;;;15.50;99.90;;;;;;5002548;28;20128;-64
2022/05/11 06:16:31;;;;;;;9.02;3.80;;;15.60;99.90;;;;;;5002564;28;20038;-64
2022/05/11 06:18:57;;;;;;;7.03;4.55;;;15.60;99.90;;;;;;4998170;28;20088;-64
2022/05/11 06:21:23;;;;;;;7.07;4.15;;;15.60;99.90;;;;;;5007668;28;20040;-64
2022/05/11 06:23:49;;;;;;;12.23;4.43;;;15.60;99.90;;;;;;5003373;28;20107;-65
2022/05/11 06:26:16;;;;;;;7.38;3.67;;;15.60;99.90;;;;;;4998610;28;20045;-64
2022/05/11 06:28:42;;;;;;;6.63;3.63;;;15.60;99.90;;;;;;5006493;28;20103;-64
2022/05/11 06:31:08;;;;;;;8.13;4.30;;;15.70;99.90;;;;;;5000237;28;20126;-65
2022/05/11 06:33:34;;;;;;;6.57;4.53;;;15.80;99.90;;;;;;5004943;28;20686;-64
2022/05/11 06:36:02;;;;;;;9.82;4.00;;;16.00;99.90;;;;;;5001875;28;20107;-64
2022/05/11 06:38:28;;;;;;;13.40;4.50;;;16.10;99.90;;;;;;5002117;28;20058;-64
2022/05/11 06:40:53;;;;;;;8.73;4.43;;;16.20;99.90;;;;;;5007278;28;20072;-64
2022/05/11 06:43:19;;;;;;;7.43;3.95;;;16.20;99.90;;;;;;5003770;28;20041;-64
2022/05/11 06:45:45;;;;;;;6.10;4.15;;;16.40;99.90;;;;;;5004100;28;20054;-64
2022/05/11 06:48:12;;;;;;;6.28;4.18;;;16.50;99.90;;;;;;5006584;28;20037;-64
2022/05/11 06:50:38;;;;;;;8.10;4.13;;;16.60;99.90;;;;;;5006410;28;20076;-64
2022/05/11 06:53:10;;;;;;;7.90;5.07;;;16.70;99.90;;;;;;4654565;28;9999875;-63
2022/05/11 07:01:07;;;;;;;7.13;4.35;;;16.60;99.90;;;;;;4998837;28;20046;-64
2022/05/11 07:03:32;;;;;;;7.70;4.57;;;16.60;99.90;;;;;;4653854;28;10000464;-64
2022/05/11 07:05:58;;;;;;;7.15;4.80;;;16.60;99.90;;;;;;4999752;28;20049;-64
2022/05/11 07:08:23;;;;;;;10.73;4.15;;;16.60;99.90;;;;;;4996729;28;20903;-64
2022/05/11 07:13:33;;;;;;;8.73;4.38;;;16.80;99.90;;;;;;4999333;28;20131;-64
2022/05/11 07:15:59;;;;;;;6.75;4.72;;;16.70;99.90;;;;;;4998324;28;20096;-64
2022/05/11 07:18:26;;;;;;;8.15;4.60;;;16.80;99.90;;;;;;5006978;28;20179;-64
2022/05/11 07:20:51;;;;;;;15.75;5.32;;;16.80;99.90;;;;;;5003176;28;20054;-64
2022/05/11 07:23:17;;;;;;;8.45;4.50;;;16.70;99.90;;;;;;5006205;28;20111;-64
2022/05/11 07:25:43;;;;;;;8.10;4.82;;;16.80;99.90;;;;;;4997508;28;20042;-64
2022/05/11 07:28:09;;;;;;;11.60;3.97;;;16.90;99.90;;;;;;5004160;28;20092;-64
2022/05/11 07:30:37;;;;;;;5.60;4.00;;;17.20;99.90;;;;;;5008329;28;20702;-64
2022/05/11 07:33:03;;;;;;;6.72;4.50;;;17.60;99.90;;;;;;5004323;28;20695;-64
2022/05/11 07:35:30;;;;;;;8.98;4.90;;;18.00;99.90;;;;;;5002621;28;20931;-64
2022/05/11 07:37:58;;;;;;;9.38;4.30;;;17.80;99.90;;;;;;4996716;28;20042;-64
2022/05/11 07:40:24;;;;;;;5.85;4.03;;;17.90;99.90;;;;;;5002338;28;20057;-64
2022/05/11 07:42:50;;;;;;;10.10;4.53;;;18.00;99.90;;;;;;4992709;28;20037;-64
2022/05/11 07:45:17;;;;;;;8.40;4.22;;;17.90;99.90;;;;;;4996114;28;20122;-64
2022/05/11 07:47:43;;;;;;;8.70;3.67;;;18.40;99.90;;;;;;5000490;28;20903;-64
2022/05/11 07:50:13;;;;;;;8.32;4.63;;;19.50;99.90;;;;;;5003107;28;20064;-64
2022/05/11 07:52:43;;;;;;;10.00;4.03;;;19.50;98.50;;;;;;5000151;28;20084;-64
2022/05/11 07:55:09;;;;;;;6.40;3.35;;;19.40;98.90;;;;;;4999928;28;20527;-64
2022/05/11 08:00:20;;;;;;;6.40;3.63;;;19.10;99.00;;;;;;4997439;28;20057;-64
2022/05/11 08:02:52;;;;;;;7.40;4.80;;;19.00;98.70;;;;;;4833093;28;10001570;-65
2022/05/11 08:05:19;;;;;;;9.18;3.78;;;18.90;98.70;;;;;;5001951;28;20309;-65
2022/05/11 08:07:48;;;;;;;9.35;3.65;;;18.70;98.20;;;;;;4993958;28;20085;-64
2022/05/11 08:10:26;;;;;;;6.95;3.50;;;18.70;98.40;;;;;;4994374;28;20077;-64
2022/05/11 08:12:52;;;;;;;11.48;4.70;;;18.80;99.00;;;;;;4994664;28;20042;-64
2022/05/11 08:15:21;;;;;;;11.75;4.03;;;18.80;98.70;;;;;;4996443;28;20540;-64
2022/05/11 08:17:47;;;;;;;7.55;3.95;;;18.90;97.10;;;;;;5014060;28;20116;-64
2022/05/11 08:20:19;;;;;;;7.50;3.20;;;19.40;98.10;;;;;;5016277;28;20437;-64
2022/05/11 08:22:46;;;;;;;6.18;2.90;;;19.60;95.50;;;;;;5015283;28;20049;-64
2022/05/11 08:25:16;;;;;;;5.85;3.05;;;19.80;97.10;;;;;;5003131;28;20474;-64
2022/05/11 08:27:43;;;;;;;6.80;3.15;;;19.40;94.60;;;;;;4998040;28;20061;-65
2022/05/11 08:35:39;;;;;;;6.65;2.92;;;19.90;94.60;;;;;;4996537;28;20056;-63
2022/05/11 08:38:05;;;;;;;8.43;2.60;;;20.20;94.30;;;;;;4996898;28;20409;-64
2022/05/11 08:40:37;;;;;;;7.63;2.70;;;20.10;94.20;;;;;;5001225;28;20072;-58
2022/05/11 08:43:05;;;;;;;6.72;3.65;;;19.80;95.10;;;;;;5011996;28;20049;-64
2022/05/11 08:46:00;;;;;;;9.80;2.70;;;19.80;95.20;;;;;;5004656;28;20052;-64
2022/05/11 08:48:48;;;;;;;9.00;2.92;;;19.70;93.90;;;;;;5002456;28;20711;-64
2022/05/11 08:51:38;;;;;;;8.23;3.20;;;19.70;95.00;;;;;;4999735;28;20104;-64
2022/05/11 08:54:16;;;;;;;7.57;2.63;;;20.00;94.60;;;;;;4995472;28;20395;-64
2022/05/11 08:56:43;;;;;;;24.05;5.28;;;20.10;94.70;;;;;;4995513;28;20132;-61
2022/05/11 08:59:16;;;;;;;6.47;2.92;;;20.30;94.80;;;;;;4998687;28;20033;-63
2022/05/11 09:02:03;;;;;;;;;;;20.20;94.20;;;;;;5015220;28;20049;-63
2022/05/11 09:04:50;;;;;;;5.85;2.95;;;20.20;93.70;;;;;;5011777;28;20044;-63
2022/05/11 09:07:16;;;;;;;9.02;2.70;;;20.10;92.70;;;;;;5013236;28;20662;-63
2022/05/11 09:09:42;;;;;;;7.38;2.80;;;20.30;93.30;;;;;;5014865;28;20045;-63
2022/05/11 09:12:10;;;;;;;11.38;3.10;;;20.80;93.00;;;;;;5014632;28;20075;-63
2022/05/11 09:14:37;;;;;;;8.38;2.85;;;21.20;92.90;;;;;;5012399;28;20496;-63
2022/05/11 09:17:06;;;;;;;6.45;2.45;;;21.70;92.70;;;;;;5000882;28;20057;-62
2022/05/11 09:19:34;;;;;;;9.30;2.72;;;21.70;91.30;;;;;;5002665;28;20085;-63
2022/05/11 09:22:07;;;;;;;5.43;3.03;;;22.20;92.40;;;;;;5008126;28;20096;-63
2022/05/11 09:24:49;;;;;;;9.43;3.20;;;22.90;91.10;;;;;;5007988;28;20394;-63
2022/05/11 09:27:32;;;;;;;11.80;3.70;;;23.20;89.00;;;;;;5014198;28;20077;-62
2022/05/11 09:30:01;;;;;;;;;;;24.10;87.90;;;;;;5016206;28;20063;-62
2022/05/11 09:32:36;;;;;;;5.18;2.40;;;24.50;85.50;;;;;;5015403;28;20019;-63
2022/05/11 09:35:22;;;;;;;5.68;2.67;;;25.10;87.40;;;;;;5015837;28;20504;-64
2022/05/11 09:37:58;;;;;;;6.15;2.78;;;24.50;82.00;;;;;;5015120;28;20050;-63
2022/05/11 09:40:24;;;;;;;10.73;2.72;;;24.40;84.70;;;;;;5015072;28;20053;-63
2022/05/11 09:42:56;;;;;;;8.15;2.88;;;24.00;86.40;;;;;;5014790;28;20045;-63
2022/05/11 09:45:38;;;;;;;8.38;3.30;;;23.70;83.40;;;;;;5005648;28;20056;-63
2022/05/11 09:48:16;;;;;;;6.10;2.33;;;24.00;85.00;;;;;;4994782;28;20073;-63
2022/05/11 09:50:43;;;;;;;8.95;2.58;;;24.20;85.00;;;;;;5011084;28;20107;-64
2022/05/11 09:53:23;;;;;;;15.35;4.20;;;24.00;86.50;;;;;;5014113;28;20093;-64
2022/05/11 09:55:49;;;;;;;7.35;2.40;;;24.20;82.50;;;;;;5015364;28;20143;-64
2022/05/11 09:58:28;;;;;;;8.95;2.70;;;24.30;83.10;;;;;;5015397;28;20092;-64
2022/05/11 10:01:13;;;;;;;8.07;2.60;;;24.70;80.50;;;;;;5008010;28;20050;-65
2022/05/11 10:04:14;;;;;;;7.60;2.72;;;24.20;81.20;;;;;;4995264;28;20583;-64
2022/05/11 10:06:52;;;;;;;7.47;2.30;;;23.80;83.70;;;;;;4971034;28;20060;-65
2022/05/11 10:09:27;;;;;;;8.07;2.70;;;23.80;83.00;;;;;;4994074;28;20057;-65
2022/05/11 10:11:53;;;;;;;7.10;2.83;;;23.00;83.30;;;;;;4994480;28;20054;-64
2022/05/11 10:23:23;;;;;;;5.72;1.98;;;21.80;86.80;;;;;;5013281;28;20064;-65
2022/05/11 10:25:59;;;;;;;6.93;2.35;;;22.60;84.20;;;;;;5011285;28;20547;-65
2022/05/11 10:28:54;;;;;;;8.73;2.28;;;22.80;84.00;;;;;;5009566;28;20057;-65
2022/05/11 10:31:44;;;;;;;6.53;1.85;;;22.90;83.40;;;;;;5010667;28;20081;-65
2022/05/11 10:34:28;;;;;;;4.82;2.15;;;22.50;82.40;;;;;;5011689;28;20473;-65
2022/05/11 10:37:07;;;;;;;8.25;2.60;;;22.90;83.30;;;;;;5011225;28;20099;-64
2022/05/11 10:40:10;;;;;;;5.18;2.22;;;23.50;81.90;;;;;;5011362;28;20057;-65
2022/05/11 10:42:57;;;;;;;5.35;2.40;;;24.00;80.10;;;;;;5011591;28;20056;-65
2022/05/11 10:45:53;;;;;;;6.40;2.60;;;24.20;79.20;;;;;;5011327;28;20052;-64
2022/05/11 10:48:50;;;;;;;7.53;2.97;;;24.20;80.30;;;;;;5006875;28;20850;-64
2022/05/11 10:51:33;;;;;;;7.18;2.58;;;24.20;81.70;;;;;;5012175;28;20057;-64
2022/05/11 10:54:13;;;;;;;;;;;23.40;81.30;;;;;;5014729;28;20049;-64
2022/05/11 10:57:06;;;;;;;7.95;2.58;;;23.30;81.30;;;;;;5012286;28;19925;-64
2022/05/11 11:00:07;;;;;;;7.85;1.90;;;23.40;81.80;;;;;;5013153;28;20103;-64
2022/05/11 11:02:51;;;;;;;7.18;2.65;;;23.50;78.90;;;;;;4994049;28;20780;-65
2022/05/11 11:05:40;;;;;;;5.80;2.65;;;23.80;80.70;;;;;;4999948;28;20088;-64
2022/05/11 11:08:08;;;;;;;7.50;3.78;;;23.90;81.10;;;;;;4996655;28;20571;-65
2022/05/11 11:11:02;;;;;;;6.05;2.83;;;24.00;80.50;;;;;;4996654;28;20111;-65
2022/05/11 11:13:45;;;;;;;8.77;3.45;;;24.00;80.20;;;;;;4996807;28;20054;-64
2022/05/11 11:16:13;;;;;;;6.70;2.78;;;23.90;79.60;;;;;;5000422;28;20104;-65
2022/05/11 11:18:43;;;;;;;7.88;2.55;;;23.40;79.60;;;;;;5009122;28;20931;-64
2022/05/11 11:21:11;;;;;;;4.30;1.75;;;23.40;79.20;;;;;;5002497;28;20797;-65
2022/05/11 11:23:39;;;;;;;3.63;1.33;;;23.20;76.60;;;;;;4999147;28;20046;-65
2022/05/11 11:26:07;;;;;;;3.72;1.50;;;23.20;77.20;;;;;;5005969;28;20058;-65
2022/05/11 11:28:55;;;;;;;3.90;1.73;;;23.30;75.90;;;;;;4998046;28;20069;-64
2022/05/11 11:31:28;;;;;;;4.00;1.58;;;23.50;76.10;;;;;;5002641;28;20135;-64
2022/05/11 11:33:54;;;;;;;3.58;1.55;;;23.40;72.70;;;;;;5012015;28;20861;-64
2022/05/11 11:36:28;;;;;;;1.75;1.23;;;23.10;73.70;;;;;;5013027;28;20068;-65
2022/05/11 11:39:00;;;;;;;3.72;2.10;;;23.00;74.80;;;;;;5013896;28;20057;-65
2022/05/11 11:41:30;;;;;;;5.18;1.73;;;23.00;75.80;;;;;;5013784;28;20065;-64
2022/05/11 11:43:59;;;;;;;3.60;1.65;;;23.10;75.30;;;;;;5014455;28;20373;-64
2022/05/11 11:46:33;;;;;;;2.83;1.45;;;23.20;73.70;;;;;;5012548;28;20057;-64
2022/05/11 11:49:07;;;;;;;6.25;1.73;;;23.40;74.00;;;;;;5015073;28;20049;-64
2022/05/11 11:51:50;;;;;;;2.78;1.27;;;23.60;74.80;;;;;;5013992;28;20049;-65
2022/05/11 11:54:26;;;;;;;7.50;1.95;;;23.40;73.60;;;;;;5002377;28;20382;-65
2022/05/11 11:56:54;;;;;;;4.45;1.60;;;23.30;73.80;;;;;;4991847;28;20132;-65
2022/05/11 11:59:22;;;;;;;4.15;1.80;;;23.10;73.60;;;;;;4999692;28;20049;-63
2022/05/11 12:01:51;;;;;;;6.72;1.65;;;22.90;74.70;;;;;;5013026;28;20278;-65
2022/05/11 12:04:51;;;;;;;3.45;1.10;;;22.90;74.10;;;;;;5014042;28;20076;-65
2022/05/11 12:15:44;;;;;;;3.35;1.35;;;23.00;73.50;;;;;;5013532;28;20437;-64
2022/05/11 12:18:26;;;;;;;10.35;2.03;;;23.00;74.90;;;;;;5014707;28;20059;-64
2022/05/11 12:20:55;;;;;;;4.63;1.95;;;23.00;74.90;;;;;;5012314;28;20076;-65
2022/05/11 12:23:34;;;;;;;6.70;2.00;;;22.90;74.40;;;;;;5014683;28;20764;-65
2022/05/11 12:26:04;;;;;;;3.78;1.80;;;22.90;74.60;;;;;;5014834;28;20088;-65
2022/05/11 12:28:41;;;;;;;5.07;1.70;;;23.10;74.60;;;;;;5013627;28;20568;-64
2022/05/11 12:31:08;;;;;;;5.75;2.45;;;23.00;73.40;;;;;;5001981;28;20046;-65
2022/05/11 12:33:39;;;;;;;3.22;1.55;;;23.10;74.50;;;;;;5012225;28;20049;-65
2022/05/11 12:36:05;;;;;;;4.35;1.60;;;23.20;73.90;;;;;;5007730;28;20484;-65
2022/05/11 12:38:37;;;;;;;7.13;2.05;;;23.10;73.80;;;;;;4994493;28;20049;-65
2022/05/11 12:41:11;;;;;;;5.93;1.90;;;23.10;75.00;;;;;;4999779;28;20093;-65
2022/05/11 12:43:39;;;;;;;6.75;1.90;;;23.00;74.40;;;;;;5006010;28;20046;-65
2022/05/11 12:46:15;;;;;;;4.55;1.73;;;23.10;74.70;;;;;;4995316;28;20844;-64
2022/05/11 12:48:56;;;;;;;7.70;2.10;;;23.30;74.10;;;;;;5001945;28;20145;-64
2022/05/11 12:51:36;;;;;;;6.25;1.88;;;23.40;73.60;;;;;;5003590;28;20049;-65
2022/05/11 12:54:05;;;;;;;5.80;1.92;;;23.20;72.40;;;;;;5000378;28;20045;-65
2022/05/11 12:56:34;;;;;;;4.78;2.00;;;23.30;72.80;;;;;;5008347;28;20045;-64
2022/05/11 12:59:22;;;;;;;4.68;2.35;;;23.40;74.30;;;;;;5005207;28;20046;-64
2022/05/11 13:01:47;;;;;;;4.18;1.70;;;23.60;75.10;;;;;;4998047;28;20049;-65
2022/05/11 13:04:22;;;;;;;7.28;1.90;;;23.60;74.10;;;;;;5001328;28;20099;-65
2022/05/11 13:06:54;;;;;;;4.38;1.75;;;23.60;73.00;;;;;;4998574;28;20057;-64
2022/05/11 13:09:43;;;;;;;5.00;2.07;;;23.60;73.20;;;;;;5000371;28;20053;-65
2022/05/11 13:12:13;;;;;;;5.00;1.92;;;23.30;72.90;;;;;;5001744;28;20282;-65
2022/05/11 13:14:52;;;;;;;6.00;2.38;;;23.40;73.40;;;;;;5002839;28;20200;-65
2022/05/11 13:17:35;;;;;;;4.43;1.90;;;23.40;73.60;;;;;;5006204;28;20115;-65
2022/05/11 13:20:12;;;;;;;4.95;2.03;;;23.10;72.90;;;;;;5003181;28;20180;-65
2022/05/11 13:22:39;;;;;;;4.45;2.00;;;23.20;74.90;;;;;;4995757;28;20081;-65
2022/05/11 13:25:08;;;;;;;5.13;2.95;;;22.90;73.90;;;;;;5000173;28;20100;-64
2022/05/11 13:27:40;;;;;;;5.18;3.05;;;22.70;73.90;;;;;;4998405;28;20042;-65
2022/05/11 13:30:30;;;;;;;10.88;2.53;;;22.80;75.00;;;;;;5003998;28;20649;-65
2022/05/11 13:33:02;;;;;;;5.47;1.92;;;22.70;74.20;;;;;;5000413;28;20884;-65
2022/05/11 13:35:39;;;;;;;5.72;1.85;;;22.50;74.50;;;;;;5008247;28;20053;-65
2022/05/11 13:38:18;;;;;;;5.55;2.00;;;22.70;76.00;;;;;;4999140;28;20033;-65
2022/05/11 13:40:57;;;;;;;9.23;2.28;;;22.70;74.60;;;;;;5002198;28;20041;-65
2022/05/11 13:43:35;;;;;;;9.75;2.40;;;22.80;74.00;;;;;;4995090;28;20045;-65
2022/05/11 13:46:13;;;;;;;5.40;2.28;;;22.80;73.90;;;;;;5004269;28;20045;-65